createdAt,value
2019-02-26T00:00:44.903Z,4.43
2019-02-26T00:03:13.657Z,3.10
2019-02-26T00:05:43.325Z,3.90
2019-02-26T00:08:14.572Z,3.93
2019-02-26T00:10:44.336Z,4.43
2019-02-26T00:13:13.970Z,6.97
2019-02-26T00:15:45.764Z,4.30
2019-02-26T00:18:16.847Z,6.67
2019-02-26T00:20:46.238Z,5.13
2019-02-26T00:23:15.893Z,6.77
2019-02-26T00:25:45.552Z,5.03
2019-02-26T00:28:15.885Z,6.87
2019-02-26T00:30:46.525Z,5.07
2019-02-26T00:33:16.884Z,2.57
2019-02-26T00:35:48.120Z,4.47
2019-02-26T00:38:19.914Z,4.30
2019-02-26T00:40:49.609Z,3.20
2019-02-26T00:43:23.273Z,4.43
2019-02-26T00:45:51.047Z,4.13
2019-02-26T00:48:21.869Z,3.60
2019-02-26T00:50:52.272Z,5.00
2019-02-26T00:53:23.592Z,5.07
2019-02-26T00:55:58.437Z,6.83
2019-02-26T00:58:25.640Z,5.70
2019-02-26T01:00:55.260Z,2.80
2019-02-26T01:03:24.904Z,7.03
2019-02-26T01:05:54.605Z,5.00
2019-02-26T01:08:24.253Z,4.07
2019-02-26T01:10:53.901Z,3.33
2019-02-26T01:13:25.586Z,2.10
2019-02-26T01:15:54.869Z,8.83
2019-02-26T01:18:26.488Z,3.57
2019-02-26T01:20:57.311Z,5.17
2019-02-26T01:23:28.909Z,5.00
2019-02-26T01:25:58.424Z,3.80
2019-02-26T01:28:29.232Z,6.93
2019-02-26T01:31:00.367Z,5.27
2019-02-26T01:33:31.948Z,3.97
2019-02-26T01:36:02.667Z,7.90
2019-02-26T01:38:32.413Z,3.40
2019-02-26T01:41:02.046Z,4.20
2019-02-26T01:43:31.724Z,4.03
2019-02-26T01:46:01.446Z,3.00
2019-02-26T01:48:32.088Z,4.33
2019-02-26T01:51:03.404Z,4.93
2019-02-26T01:53:33.135Z,3.43
2019-02-26T01:56:05.082Z,3.83
2019-02-26T01:58:34.131Z,4.60
2019-02-26T02:01:03.728Z,6.57
2019-02-26T02:03:33.476Z,5.70
2019-02-26T02:06:03.213Z,9.50
2019-02-26T02:08:32.893Z,6.77
2019-02-26T02:11:04.360Z,3.60
2019-02-26T02:13:35.872Z,3.23
2019-02-26T02:16:06.729Z,4.17
2019-02-26T02:18:36.472Z,2.73
2019-02-26T02:21:06.114Z,5.73
2019-02-26T02:23:35.733Z,3.47
2019-02-26T02:26:07.156Z,4.40
2019-02-26T02:28:36.721Z,4.40
2019-02-26T02:31:06.375Z,3.37
2019-02-26T02:33:37.563Z,4.97
2019-02-26T02:36:09.735Z,3.70
2019-02-26T02:38:38.780Z,4.90
2019-02-26T02:41:08.397Z,2.87
2019-02-26T02:43:38.033Z,7.60
2019-02-26T02:46:07.709Z,5.00
2019-02-26T02:48:37.345Z,5.03
2019-02-26T02:51:08.450Z,2.67
2019-02-26T02:53:38.508Z,1.73
2019-02-26T02:56:10.572Z,4.07
2019-02-26T02:58:41.670Z,6.80
2019-02-26T03:01:10.764Z,3.23
2019-02-26T03:03:40.524Z,3.23
2019-02-26T03:06:12.277Z,8.03
2019-02-26T03:08:42.222Z,8.93
2019-02-26T03:11:12.770Z,4.67
2019-02-26T03:13:43.077Z,3.43
2019-02-26T03:16:15.786Z,6.50
2019-02-26T03:18:45.041Z,6.73
2019-02-26T03:21:16.676Z,2.27
2019-02-26T03:23:46.170Z,3.43
2019-02-26T03:26:17.893Z,4.67
2019-02-26T03:28:47.991Z,5.30
2019-02-26T03:31:18.449Z,9.53
2019-02-26T03:33:48.088Z,4.23
2019-02-26T03:36:19.255Z,3.27
2019-02-26T03:38:50.913Z,4.17
2019-02-26T03:41:22.901Z,5.47
2019-02-26T03:43:51.802Z,5.60
2019-02-26T03:46:21.457Z,5.00
2019-02-26T03:48:51.214Z,4.07
2019-02-26T03:51:20.893Z,2.73
2019-02-26T03:53:50.544Z,2.77
2019-02-26T03:56:20.558Z,6.20
2019-02-26T03:58:54.379Z,3.47
2019-02-26T04:01:21.794Z,5.87
2019-02-26T04:03:51.512Z,3.73
2019-02-26T04:06:21.181Z,6.50
2019-02-26T04:08:53.060Z,9.70
2019-02-26T04:11:24.817Z,4.23
2019-02-26T04:13:56.119Z,1.87
2019-02-26T04:16:24.752Z,2.77
2019-02-26T04:18:54.400Z,2.40
2019-02-26T04:21:24.039Z,7.17
2019-02-26T04:23:53.649Z,8.33
2019-02-26T04:27:06.078Z,7.87
2019-02-26T04:30:08.214Z,4.13
2019-02-26T04:33:16.384Z,4.07
2019-02-26T04:36:03.314Z,2.73
2019-02-26T04:39:13.664Z,2.90
2019-02-26T04:42:11.212Z,5.80
2019-02-26T04:45:31.435Z,1.77
2019-02-26T04:48:01.060Z,3.90
2019-02-26T04:50:33.063Z,3.20
2019-02-26T04:53:04.944Z,3.50
2019-02-26T04:55:36.117Z,6.03
2019-02-26T04:58:04.894Z,4.63
2019-02-26T05:00:36.542Z,4.70
2019-02-26T05:03:07.859Z,4.93
2019-02-26T05:05:37.277Z,10.10
2019-02-26T05:08:09.883Z,3.50
2019-02-26T05:10:38.163Z,3.17
2019-02-26T05:13:09.657Z,6.90
2019-02-26T05:15:39.088Z,3.30
2019-02-26T05:18:08.729Z,6.10
2019-02-26T05:20:42.067Z,5.37
2019-02-26T05:23:09.578Z,4.07
2019-02-26T05:25:39.645Z,7.90
2019-02-26T05:28:14.014Z,4.40
2019-02-26T05:30:43.741Z,4.43
2019-02-26T05:33:13.145Z,2.93
2019-02-26T05:35:45.601Z,6.17
2019-02-26T05:38:14.044Z,4.03
2019-02-26T05:40:45.286Z,7.70
2019-02-26T05:43:15.063Z,3.13
2019-02-26T05:45:44.689Z,4.90
2019-02-26T05:48:16.186Z,8.67
2019-02-26T05:50:45.575Z,6.63
2019-02-26T05:53:15.187Z,8.37
2019-02-26T05:55:47.637Z,5.00
2019-02-26T05:58:18.845Z,7.70
2019-02-26T06:00:47.380Z,7.97
2019-02-26T06:03:18.651Z,3.97
2019-02-26T06:05:49.110Z,4.33
2019-02-26T06:08:19.612Z,4.43
2019-02-26T06:10:49.359Z,9.40
2019-02-26T06:13:18.956Z,3.97
2019-02-26T06:15:51.276Z,4.60
2019-02-26T06:18:20.999Z,7.90
2019-02-26T06:20:51.726Z,4.87
2019-02-26T06:23:23.151Z,5.63
2019-02-26T06:25:55.205Z,6.13
2019-02-26T06:28:24.415Z,3.70
2019-02-26T06:30:55.106Z,4.03
2019-02-26T06:33:24.927Z,5.10
2019-02-26T06:35:54.934Z,4.60
2019-02-26T06:38:27.960Z,3.37
2019-02-26T06:40:57.332Z,6.53
2019-02-26T06:43:27.015Z,7.03
2019-02-26T06:45:56.691Z,4.23
2019-02-26T06:48:27.587Z,4.43
2019-02-26T06:50:59.838Z,3.03
2019-02-26T06:53:29.035Z,7.90
2019-02-26T06:56:00.756Z,10.07
2019-02-26T06:58:30.005Z,4.90
2019-02-26T07:01:00.542Z,4.37
2019-02-26T07:03:30.152Z,2.80
2019-02-26T07:06:02.119Z,7.13
2019-02-26T07:08:31.127Z,7.23
2019-02-26T07:11:00.719Z,4.70
2019-02-26T07:13:30.328Z,6.33
2019-02-26T07:15:59.911Z,4.70
2019-02-26T07:18:29.624Z,3.73
2019-02-26T07:21:00.336Z,8.43
2019-02-26T07:23:32.635Z,5.47
2019-02-26T07:26:01.308Z,7.23
2019-02-26T07:28:30.984Z,13.10
2019-02-26T07:31:02.742Z,8.77
2019-02-26T07:33:34.120Z,17.10
2019-02-26T07:36:04.177Z,10.63
2019-02-26T07:38:40.963Z,5.93
2019-02-26T07:41:06.134Z,3.20
2019-02-26T07:43:38.775Z,6.60
2019-02-26T07:46:09.533Z,6.30
2019-02-26T07:48:38.691Z,6.20
2019-02-26T07:51:08.295Z,12.83
2019-02-26T07:53:42.013Z,6.43
2019-02-26T07:56:09.371Z,6.27
2019-02-26T07:58:40.818Z,10.77
2019-02-26T08:01:10.423Z,12.83
2019-02-26T08:03:42.045Z,13.43
2019-02-26T08:06:12.135Z,4.97
2019-02-26T08:08:44.873Z,3.50
2019-02-26T08:11:14.927Z,4.77
2019-02-26T08:13:44.620Z,5.77
2019-02-26T08:16:14.324Z,3.67
2019-02-26T08:18:43.952Z,7.23
2019-02-26T08:21:13.615Z,2.00
2019-02-26T08:23:43.670Z,3.07
2019-02-26T08:26:15.546Z,4.37
2019-02-26T08:28:48.132Z,4.47
2019-02-26T08:31:18.514Z,7.90
2019-02-26T08:33:50.917Z,4.03
2019-02-26T08:36:21.044Z,2.63
2019-02-26T08:38:52.057Z,10.03
2019-02-26T08:41:21.856Z,11.83
2019-02-26T08:43:52.135Z,7.53
2019-02-26T08:46:22.687Z,11.30
2019-02-26T08:48:52.383Z,8.53
2019-02-26T08:51:21.993Z,6.43
2019-02-26T08:53:51.895Z,4.73
2019-02-26T08:56:23.909Z,4.43
2019-02-26T08:58:54.196Z,6.13
2019-02-26T09:01:23.788Z,4.97
2019-02-26T09:03:55.711Z,7.93
2019-02-26T09:06:24.699Z,5.37
2019-02-26T09:08:55.062Z,9.17
2019-02-26T09:11:26.229Z,5.80
2019-02-26T09:13:59.535Z,2.83
2019-02-26T09:16:30.250Z,6.13
2019-02-26T09:18:59.683Z,6.17
2019-02-26T09:21:29.333Z,2.80
2019-02-26T09:24:00.073Z,11.60
2019-02-26T09:26:30.166Z,3.70
2019-02-26T09:28:59.759Z,9.80
2019-02-26T09:31:29.499Z,4.70
2019-02-26T09:33:59.127Z,12.10
2019-02-26T09:36:29.456Z,8.20
2019-02-26T09:38:59.305Z,23.23
2019-02-26T09:41:28.984Z,7.17
2019-02-26T09:43:59.414Z,5.70
2019-02-26T09:46:31.719Z,10.43
2019-02-26T09:49:03.159Z,6.77
2019-02-26T09:51:33.072Z,5.17
2019-02-26T09:54:03.807Z,11.83
2019-02-26T09:56:33.415Z,4.43
2019-02-26T09:59:05.125Z,7.37
2019-02-26T10:01:35.422Z,6.87
2019-02-26T10:04:05.591Z,4.47
2019-02-26T10:06:37.360Z,7.43
2019-02-26T10:09:08.948Z,22.20
2019-02-26T10:11:39.350Z,5.53
2019-02-26T10:14:10.953Z,8.43
2019-02-26T10:16:41.288Z,15.13
2019-02-26T10:19:12.627Z,7.43
2019-02-26T10:21:44.483Z,8.13
2019-02-26T10:24:13.517Z,5.70
2019-02-26T10:26:43.389Z,16.27
2019-02-26T10:29:13.058Z,6.80
2019-02-26T10:31:42.721Z,10.93
2019-02-26T10:34:13.324Z,5.43
2019-02-26T10:36:46.460Z,5.23
2019-02-26T10:39:15.643Z,7.90
2019-02-26T10:41:46.671Z,2.70
2019-02-26T10:44:16.442Z,8.60
2019-02-26T10:46:46.069Z,10.13
2019-02-26T10:49:15.703Z,4.43
2019-02-26T10:51:45.323Z,6.57
2019-02-26T10:54:17.847Z,8.47
2019-02-26T10:56:46.219Z,4.70
2019-02-26T10:59:19.185Z,6.97
2019-02-26T11:01:51.616Z,14.00
2019-02-26T11:04:19.205Z,5.07
2019-02-26T11:06:48.819Z,3.57
2019-02-26T11:09:22.291Z,6.23
2019-02-26T11:11:49.721Z,6.83
2019-02-26T11:14:19.575Z,9.67
2019-02-26T11:16:49.287Z,4.60
2019-02-26T11:19:18.959Z,7.83
2019-02-26T11:21:50.839Z,5.53
2019-02-26T11:24:19.857Z,8.70
2019-02-26T11:26:49.507Z,2.07
2019-02-26T11:29:19.133Z,10.43
2019-02-26T11:31:49.698Z,6.90
2019-02-26T11:34:19.500Z,4.53
2019-02-26T11:36:49.108Z,9.33
2019-02-26T11:39:18.731Z,6.83
2019-02-26T11:41:50.738Z,13.30
2019-02-26T11:44:20.626Z,8.43
2019-02-26T11:46:51.936Z,12.13
2019-02-26T11:49:22.246Z,6.87
2019-02-26T11:51:51.868Z,3.53
2019-02-26T11:54:21.464Z,4.40
2019-02-26T11:56:52.530Z,7.63
2019-02-26T11:59:22.334Z,13.03
2019-02-26T12:01:54.015Z,3.47
2019-02-26T12:04:23.192Z,6.93
2019-02-26T12:06:52.825Z,3.27
2019-02-26T12:09:22.430Z,5.90
2019-02-26T12:11:52.051Z,5.40
2019-02-26T12:14:21.737Z,9.20
2019-02-26T12:16:51.363Z,13.27
2019-02-26T12:19:22.948Z,12.90
2019-02-26T12:21:54.399Z,7.97
2019-02-26T12:24:24.197Z,4.30
2019-02-26T12:26:54.854Z,17.87
2019-02-26T12:29:26.010Z,9.17
2019-02-26T12:31:57.801Z,9.30
2019-02-26T12:34:27.036Z,5.77
2019-02-26T12:36:59.645Z,28.20
2019-02-26T12:39:29.169Z,5.40
2019-02-26T12:41:59.256Z,7.93
2019-02-26T12:44:29.626Z,14.00
2019-02-26T12:47:00.413Z,10.63
2019-02-26T12:49:33.249Z,5.27
2019-02-26T12:52:03.382Z,18.27
2019-02-26T12:54:33.493Z,8.03
2019-02-26T12:57:04.412Z,9.83
2019-02-26T12:59:34.036Z,7.07
2019-02-26T13:02:05.666Z,7.07
2019-02-26T13:04:37.715Z,7.57
2019-02-26T13:07:08.693Z,7.40
2019-02-26T13:09:41.349Z,37.73
2019-02-26T13:12:08.957Z,7.13
2019-02-26T13:14:38.640Z,10.20
2019-02-26T13:17:08.328Z,10.57
2019-02-26T13:19:37.974Z,8.43
2019-02-26T13:22:11.937Z,10.17
2019-02-26T13:24:39.209Z,7.40
2019-02-26T13:27:08.913Z,4.33
2019-02-26T13:29:42.408Z,5.47
2019-02-26T13:32:13.531Z,5.43
2019-02-26T13:34:41.229Z,7.17
2019-02-26T13:37:10.975Z,14.50
2019-02-26T13:39:41.542Z,14.17
2019-02-26T13:42:13.989Z,10.60
2019-02-26T13:44:43.274Z,14.20
2019-02-26T13:47:12.996Z,9.47
2019-02-26T13:49:42.644Z,8.83
2019-02-26T13:52:12.283Z,18.27
2019-02-26T13:54:41.952Z,29.13
2019-02-26T13:57:11.564Z,9.77
2019-02-26T13:59:41.233Z,9.20
2019-02-26T14:02:11.084Z,44.57
2019-02-26T14:04:40.786Z,17.73
2019-02-26T14:07:10.408Z,14.20
2019-02-26T14:09:40.032Z,27.00
2019-02-26T14:12:09.723Z,16.73
2019-02-26T14:14:39.365Z,13.67
2019-02-26T14:17:08.997Z,23.67
2019-02-26T14:19:38.638Z,19.60
2019-02-26T14:22:08.256Z,20.37
2019-02-26T14:24:38.072Z,6.20
2019-02-26T14:27:07.708Z,17.17
2019-02-26T14:29:37.336Z,16.63
2019-02-26T14:32:06.952Z,16.50
2019-02-26T14:34:36.959Z,22.17
2019-02-26T14:37:06.589Z,39.47
2019-02-26T14:39:36.236Z,19.20
2019-02-26T14:42:05.859Z,16.03
2019-02-26T14:44:35.462Z,7.80
2019-02-26T14:47:05.567Z,9.77
2019-02-26T14:49:35.193Z,8.73
2019-02-26T14:52:04.813Z,16.03
2019-02-26T14:54:34.427Z,36.83
2019-02-26T14:57:04.050Z,16.73
2019-02-26T14:59:33.658Z,13.93
2019-02-26T15:02:03.286Z,54.67
2019-02-26T15:04:32.911Z,15.20
2019-02-26T15:07:02.537Z,11.60
2019-02-26T15:09:32.464Z,20.87
2019-02-26T15:12:02.156Z,14.77
2019-02-26T15:14:31.787Z,21.33
2019-02-26T15:17:01.404Z,31.37
2019-02-26T15:19:31.036Z,16.90
2019-02-26T15:22:00.640Z,17.43
2019-02-26T15:24:30.277Z,19.63
2019-02-26T15:26:59.985Z,18.03
2019-02-26T15:29:29.628Z,35.73
2019-02-26T15:31:59.248Z,23.40
2019-02-26T15:34:28.878Z,28.17
2019-02-26T15:36:58.476Z,31.40
2019-02-26T15:39:28.143Z,19.77
2019-02-26T15:41:57.807Z,41.00
2019-02-26T15:44:28.788Z,28.53
2019-02-26T15:46:59.605Z,42.07
2019-02-26T15:49:30.207Z,39.20
2019-02-26T15:51:59.848Z,65.90
2019-02-26T15:54:29.488Z,32.90
2019-02-26T15:57:00.511Z,46.07
2019-02-26T15:59:30.402Z,38.83
2019-02-26T16:02:00.015Z,30.37
2019-02-26T16:04:29.643Z,26.43
2019-02-26T16:06:59.677Z,35.70
2019-02-26T16:09:29.295Z,21.00
2019-02-26T16:11:58.931Z,24.17
2019-02-26T16:14:28.571Z,15.37
2019-02-26T16:16:58.220Z,34.90
2019-02-26T16:19:27.839Z,38.77
2019-02-26T16:21:57.465Z,19.50
2019-02-26T16:24:27.144Z,24.30
2019-02-26T16:26:56.765Z,16.70
2019-02-26T16:29:26.518Z,63.17
2019-02-26T16:31:57.321Z,46.40
2019-02-26T16:34:27.056Z,22.43
2019-02-26T16:36:56.664Z,20.53
2019-02-26T16:39:45.427Z,16.47
2019-02-26T16:42:15.039Z,33.97
2019-02-26T16:44:44.731Z,38.87
2019-02-26T16:47:14.659Z,51.80
2019-02-26T16:49:44.891Z,35.97
2019-02-26T16:52:14.592Z,36.97
2019-02-26T16:54:44.212Z,31.33
2019-02-26T16:57:15.668Z,64.93
2019-02-26T16:59:45.400Z,112.17
2019-02-26T17:02:15.652Z,101.27
2019-02-26T17:04:45.355Z,60.33
2019-02-26T17:07:14.977Z,73.93
2019-02-26T17:09:44.588Z,36.87
2019-02-26T17:12:14.325Z,54.43
2019-02-26T17:14:50.398Z,44.07
2019-02-26T17:17:18.555Z,85.73
2019-02-26T17:19:48.969Z,118.47
2019-02-26T17:22:19.436Z,104.93
2019-02-26T17:24:49.047Z,134.30
2019-02-26T17:27:18.684Z,109.03
2019-02-26T17:29:49.732Z,82.63
2019-02-26T17:32:19.840Z,68.73
2019-02-26T17:34:49.468Z,107.17
2019-02-26T17:37:20.493Z,92.33
2019-02-26T17:39:50.149Z,100.30
2019-02-26T17:42:19.791Z,93.53
2019-02-26T17:44:49.512Z,97.00
2019-02-26T17:47:19.119Z,87.30
2019-02-26T17:49:49.132Z,104.43
2019-02-26T17:52:21.046Z,115.93
2019-02-26T17:54:50.677Z,106.57
2019-02-26T17:57:20.317Z,99.53
2019-02-26T17:59:49.984Z,90.40
2019-02-26T18:02:19.665Z,79.13
2019-02-26T18:04:49.312Z,97.93
2019-02-26T18:07:18.936Z,66.50
2019-02-26T18:09:50.606Z,56.43
2019-02-26T18:12:20.316Z,75.73
2019-02-26T18:14:49.980Z,64.63
2019-02-26T18:17:19.628Z,90.60
2019-02-26T18:19:49.674Z,59.73
2019-02-26T18:22:21.891Z,75.23
2019-02-26T18:24:51.096Z,61.53
2019-02-26T18:27:21.812Z,73.60
2019-02-26T18:29:51.581Z,62.53
2019-02-26T18:32:21.252Z,79.33
2019-02-26T18:34:50.877Z,54.73
2019-02-26T18:37:20.976Z,63.03
2019-02-26T18:39:54.367Z,56.73
2019-02-26T18:42:24.600Z,46.70
2019-02-26T18:44:54.656Z,56.83
2019-02-26T18:47:24.300Z,19.23
2019-02-26T18:49:55.499Z,49.13
2019-02-26T18:52:25.248Z,31.23
2019-02-26T18:54:55.109Z,16.03
2019-02-26T18:57:24.915Z,22.73
2019-02-26T18:59:54.611Z,29.80
2019-02-26T19:02:24.238Z,29.97
2019-02-26T19:04:53.885Z,37.33
2019-02-26T19:07:23.525Z,40.40
2019-02-26T19:09:53.199Z,104.13
2019-02-26T19:12:22.938Z,19.03
2019-02-26T19:14:52.652Z,24.20
2019-02-26T19:17:22.271Z,19.63
2019-02-26T19:19:51.892Z,23.50
2019-02-26T19:22:21.525Z,15.80
2019-02-26T19:24:51.208Z,13.73
2019-02-26T19:27:20.835Z,9.07
2019-02-26T19:29:50.508Z,12.03
2019-02-26T19:32:20.126Z,7.27
2019-02-26T19:34:49.741Z,8.63
2019-02-26T19:37:22.282Z,23.63
2019-02-26T19:39:50.673Z,19.27
2019-02-26T19:42:21.101Z,18.40
2019-02-26T19:44:50.808Z,25.80
2019-02-26T19:47:22.716Z,28.90
2019-02-26T19:49:51.903Z,26.27
2019-02-26T19:52:21.592Z,19.70
2019-02-26T19:54:51.340Z,19.57
2019-02-26T19:57:21.696Z,23.83
2019-02-26T19:59:51.321Z,21.23
2019-02-26T20:02:20.968Z,29.97
2019-02-26T20:04:50.721Z,15.50
2019-02-26T20:07:20.424Z,45.43
2019-02-26T20:09:50.065Z,23.57
2019-02-26T20:12:19.700Z,15.40
2019-02-26T20:14:49.559Z,21.37
2019-02-26T20:17:19.377Z,17.40
2019-02-26T20:19:48.991Z,11.40
2019-02-26T20:22:18.664Z,15.97
2019-02-26T20:24:48.300Z,12.97
2019-02-26T20:27:21.640Z,8.83
2019-02-26T20:29:49.207Z,10.20
2019-02-26T20:32:18.872Z,10.30
2019-02-26T20:34:48.504Z,12.57
2019-02-26T20:37:18.120Z,7.27
2019-02-26T20:39:47.760Z,9.10
2019-02-26T20:42:17.387Z,3.90
2019-02-26T20:44:47.083Z,9.50
2019-02-26T20:47:16.792Z,11.87
2019-02-26T20:49:46.940Z,9.13
2019-02-26T20:52:16.741Z,8.33
2019-02-26T20:54:46.465Z,8.03
2019-02-26T20:57:16.138Z,3.00
2019-02-26T20:59:45.922Z,3.00
2019-02-26T21:02:15.589Z,4.97
2019-02-26T21:04:45.259Z,6.17
2019-02-26T21:07:14.939Z,7.80
2019-02-26T21:09:44.588Z,3.83
2019-02-26T21:12:14.220Z,6.40
2019-02-26T21:14:43.835Z,9.27
2019-02-26T21:17:13.499Z,5.43
2019-02-26T21:19:43.115Z,11.17
2019-02-26T21:22:12.724Z,3.50
2019-02-26T21:24:42.377Z,5.07
2019-02-26T21:27:12.060Z,9.47
2019-02-26T21:29:41.698Z,4.53
2019-02-26T21:32:11.300Z,6.87
2019-02-26T21:34:42.861Z,5.77
2019-02-26T21:37:12.200Z,3.97
2019-02-26T21:39:43.684Z,4.73
2019-02-26T21:42:13.090Z,4.27
2019-02-26T21:44:42.712Z,5.50
2019-02-26T21:47:12.323Z,3.73
2019-02-26T21:49:41.964Z,4.83
2019-02-26T21:52:11.600Z,3.00
2019-02-26T21:54:42.829Z,5.63
2019-02-26T21:57:12.548Z,4.97
2019-02-26T21:59:49.867Z,6.43
2019-02-26T22:02:13.553Z,2.33
2019-02-26T22:04:43.168Z,2.87
2019-02-26T22:07:12.864Z,2.83
2019-02-26T22:09:42.599Z,7.10
2019-02-26T22:12:12.232Z,6.27
2019-02-26T22:14:41.838Z,3.13
2019-02-26T22:17:11.461Z,3.57
2019-02-26T22:19:41.088Z,6.33
2019-02-26T22:22:10.695Z,4.30
2019-02-26T22:24:40.790Z,2.87
2019-02-26T22:27:10.460Z,4.20
2019-02-26T22:29:40.174Z,6.97
2019-02-26T22:32:09.783Z,4.23
2019-02-26T22:34:39.387Z,5.57
2019-02-26T22:37:09.060Z,4.77
2019-02-26T22:39:38.668Z,3.63
2019-02-26T22:42:08.682Z,7.57
2019-02-26T22:44:38.344Z,3.73
2019-02-26T22:47:07.946Z,7.60
2019-02-26T22:49:37.572Z,4.27
2019-02-26T22:52:07.252Z,3.17
2019-02-26T22:54:36.887Z,4.30
2019-02-26T22:57:06.499Z,5.40
2019-02-26T22:59:38.539Z,4.43
2019-02-26T23:02:08.699Z,4.53
2019-02-26T23:04:38.929Z,7.00
2019-02-26T23:07:08.827Z,2.67
2019-02-26T23:09:39.206Z,3.80
2019-02-26T23:12:09.668Z,3.10
2019-02-26T23:14:39.478Z,4.57
2019-02-26T23:17:10.602Z,4.70
2019-02-26T23:19:40.249Z,4.20
2019-02-26T23:22:10.014Z,7.93
2019-02-26T23:24:39.783Z,6.00
2019-02-26T23:27:09.658Z,4.13
2019-02-26T23:29:41.965Z,2.93
2019-02-26T23:32:12.253Z,4.13
2019-02-26T23:34:42.243Z,3.43
2019-02-26T23:37:12.140Z,5.53
2019-02-26T23:39:41.793Z,2.90
2019-02-26T23:42:11.447Z,2.27
2019-02-26T23:44:41.182Z,7.03
2019-02-26T23:47:10.934Z,2.57
2019-02-26T23:49:40.581Z,9.47
2019-02-26T23:52:10.238Z,2.93
2019-02-26T23:54:40.487Z,6.37
2019-02-26T23:57:10.172Z,2.87
2019-02-26T23:59:39.916Z,3.93
